Aeroporto :
LOGIN :

Iscrizione | Disclaimer

   EN    FR    IT 

 










Sommario :    VFR   VFR Marginale   IFR   IFR Intensivo   IFR Molto Intensivo
Visibilità : 
Base nubi : 
>= 8 km
>= 3000ft
5 / 8 km
1000 / 3000 ft
1500m / 5 km
500 / 1000 ft
800 / 1500m
200 / 500 ft
< 800m
< 200 ft
Simboli :   Temporali  Nebbia  Neve Forte  Precipitazioni Forti  Vento > 20 kt
SIGMETs :   Varie  Temporali  Ghiacco  Turbolenza  Onda orograficha  Ceneri Vulcaniche






- Altitudine del aeroporto : 122 ft
- Codice IATA : TXL


EDDT - Berlin Tegel Int.

ULTIMO METAR :
  • 302020Z 29004KT 270V330 9999 BKN005 01/01 Q1026 TEMPO SCT007

METARs OBSOLETI :
  • 301950Z 30004KT 9999 BKN005 01/00 Q1026 TEMPO SCT007
  • 301920Z 29003KT 250V320 9999 BKN007 01/00 Q1025 TEMPO SCT007
  • 301850Z 26004KT 9999 -SN FEW013 BKN045 01/00 Q1025 TEMPO BKN013
  • 301820Z 28004KT 9999 -SN SCT013 BKN020 02/00 Q1025 TEMPO BKN013
  • 301750Z 29003KT 260V320 9999 FEW013 BKN017 02/M00 Q1025 TEMPO BKN013

TAF TAF EDDT
Valido dal 30 a 18 ore il 31 a 18 ore UTC


301700Z 3018/3118 28004KT 9999 BKN010
BECMG 3018/3020 02006KT FEW035
PROB30
TEMPO 3018/3022 2500 -SHSN BKN009TCU
BECMG 3106/3108 32007KT



MetMap, La meteo Aeronautica in un colpo d'occhio ! - Copyright ORBIFLY Dicembre 2007 - Disclaimer

ORBIFLY MET'MAP TEAM :

Programmazione e sviluppo : Alexandra Zaïnal
Concezione : Baudouin d'Aumeries
Aiuto per la programmazione : Marc-Olivier Méhu
Supporto tecnico e logistico : Manuel Goepfert
Aiuto per la traduzione : Arnaldo La Scala

Contatto : metmap@orbifly.com




FONTI E CREDITI :

   NOAA